Airfield :
LOGIN :

Register | Disclaimer

   EN    FR    IT 

 










Legend :    VFR   Marginal VFR   IFR   Intensive IFR   Very Intensive IFR
Visi :
Ceiling :
>= 8 km
>= 3000ft
5 to 8 km
1000 to 3000 ft
1500m to 5 km
500 to 1000 ft
800 to 1500m
200 to 500 ft
< 800m
< 200 ft
Symbols :   Thunderstorms  Fog  Heavy snow  Heavy precipitations  Wind > 20 kt
SIGMETs :     Misc.  Thunderstorms  Icing  Turbulence  Mountain Waves  Volcanic Ashes






- Airport Elevation : 0 ft
- IATA code : QFR


LIRH - Frosinone Military

CURRENT METAR :
  • 260955Z 08003KT 6000 SCT025 12/10 Q1004 RMK BKN BKN060 MON CIME INC NC VIS MIN 6000 WIND THR16 /////KT WHT

EXPIRED METARs :
  • 260855Z 18004KT 6000 SCT010 BKN030 11/09 Q1005
  • 260755Z 30002KT 7000 SCT010 BKN030 09/07 Q1005 RMK BKN MON CIME INC NC VIS MIN 7000 WIND THR16 /////KT WHT

TAF TAF LIRH
Valid from the 26 at 09:00 until the 26 at 18:00 UTC


260800Z 2609/2618 29005KT 7000 FEW010 BKN030
BECMG 2611/2613 27015G25KT 9999 SCT035 BKN050
PROB40
TEMPO 2615/2618 RA



MET'MAP, your aeronautical weather chart ! - Copyright ORBIFLY December 2007 - Disclaimer

ORBIFLY MET'MAP TEAM :

Programming & Development : Alexandra Zaïnal
Concept & original design : Baudouin d'Aumeries
Assistance for programming : Marc-Olivier Méhu
Technical & hardware support : Manuel Goepfert

Contact : metmap@orbifly.com




SOURCES & CREDITS :

   NOAA